createdAt,value
2022-08-07T00:01:44.288Z,101003.08
2022-08-07T00:04:09.518Z,101001.27
2022-08-07T00:06:40.930Z,101007.02
2022-08-07T00:09:29.217Z,101008.37
2022-08-07T00:12:03.861Z,101006.50
2022-08-07T00:14:32.402Z,101007.70
2022-08-07T00:17:01.862Z,101011.63
2022-08-07T00:20:00.360Z,101010.48
2022-08-07T00:22:24.527Z,101010.20
2022-08-07T00:25:07.030Z,101012.74
2022-08-07T00:27:53.274Z,101014.00
2022-08-07T00:30:26.986Z,101014.25
2022-08-07T00:33:02.061Z,101012.20
2022-08-07T00:35:30.635Z,101013.31
2022-08-07T00:37:59.220Z,101017.30
2022-08-07T00:40:39.358Z,101016.80
2022-08-07T00:43:59.373Z,101016.29
2022-08-07T00:46:01.889Z,101016.13
2022-08-07T00:48:32.249Z,101020.31
2022-08-07T00:51:02.260Z,101019.33
2022-08-07T00:53:38.836Z,101022.46
2022-08-07T00:56:18.295Z,101021.98
2022-08-07T00:58:47.417Z,101018.88
2022-08-07T01:01:19.923Z,101020.50
2022-08-07T01:03:56.150Z,101023.60
2022-08-07T01:06:28.837Z,101027.95
2022-08-07T01:08:58.569Z,101032.34
2022-08-07T01:12:27.438Z,101038.69
2022-08-07T01:14:28.879Z,101045.41
2022-08-07T01:16:58.757Z,101041.42
2022-08-07T01:19:32.414Z,101036.17
2022-08-07T01:22:01.072Z,101034.08
2022-08-07T01:24:38.332Z,101034.30
2022-08-07T01:27:06.910Z,101033.00
2022-08-07T01:29:48.501Z,101037.68
2022-08-07T01:32:19.851Z,101039.67
2022-08-07T01:34:51.580Z,101043.09
2022-08-07T01:37:19.268Z,101045.52
2022-08-07T01:39:49.837Z,101037.02
2022-08-07T01:42:38.433Z,101038.68
2022-08-07T01:45:22.704Z,101045.05
2022-08-07T01:48:21.583Z,101049.52
2022-08-07T01:50:42.968Z,101050.33
2022-08-07T01:53:21.125Z,101054.02
2022-08-07T01:56:06.173Z,101052.36
2022-08-07T01:59:09.385Z,101048.98
2022-08-07T02:02:01.893Z,101053.16
2022-08-07T02:04:52.567Z,101055.95
2022-08-07T02:07:50.134Z,101050.31
2022-08-07T02:10:25.263Z,101052.33
2022-08-07T02:12:57.371Z,101054.39
2022-08-07T02:15:33.975Z,101058.11
2022-08-07T02:18:02.866Z,101061.52
2022-08-07T02:20:32.843Z,101066.92
2022-08-07T02:23:05.356Z,101068.91
2022-08-07T02:26:30.414Z,101065.61
2022-08-07T02:28:27.024Z,101065.14
2022-08-07T02:30:58.782Z,101071.23
2022-08-07T02:33:41.956Z,101072.15
2022-08-07T02:36:29.162Z,101071.79
2022-08-07T02:39:09.441Z,101072.36
2022-08-07T02:41:50.570Z,101074.35
2022-08-07T02:44:24.115Z,101073.74
2022-08-07T02:46:57.094Z,101073.05
2022-08-07T02:49:28.603Z,101077.09
2022-08-07T02:51:59.275Z,101078.83
2022-08-07T02:54:29.034Z,101083.01
2022-08-07T02:57:01.355Z,101086.36
2022-08-07T02:59:31.898Z,101087.39
2022-08-07T03:02:02.581Z,101088.72
2022-08-07T03:04:30.859Z,101092.97
2022-08-07T03:07:07.153Z,101098.30
2022-08-07T03:09:43.559Z,101095.52
2022-08-07T03:12:22.707Z,101098.13
2022-08-07T03:15:02.381Z,101099.52
2022-08-07T03:17:53.335Z,101102.13
2022-08-07T03:20:24.025Z,101106.89
2022-08-07T03:22:53.674Z,101111.63
2022-08-07T03:25:23.411Z,101115.77
2022-08-07T03:27:59.098Z,101124.44
2022-08-07T03:30:37.430Z,101131.95
2022-08-07T03:33:08.645Z,101134.42
2022-08-07T03:35:44.151Z,101131.67
2022-08-07T03:38:21.243Z,101133.31
2022-08-07T03:40:53.951Z,101134.13
2022-08-07T03:43:26.801Z,101137.85
2022-08-07T03:46:02.981Z,101137.16
2022-08-07T03:48:33.570Z,101138.30
2022-08-07T03:51:13.984Z,101139.48
2022-08-07T03:54:05.713Z,101141.55
2022-08-07T03:56:33.307Z,101143.75
2022-08-07T03:59:09.813Z,101144.52
2022-08-07T04:01:45.546Z,101145.93
2022-08-07T04:04:17.615Z,101144.17
2022-08-07T04:06:46.563Z,101144.89
2022-08-07T04:09:23.432Z,101143.70
2022-08-07T04:12:23.412Z,101146.30
2022-08-07T04:14:47.822Z,101149.86
2022-08-07T04:17:20.761Z,101155.95
2022-08-07T04:19:55.233Z,101157.48
2022-08-07T04:22:30.013Z,101161.59
2022-08-07T04:25:01.813Z,101167.95
2022-08-07T04:27:35.460Z,101173.25
2022-08-07T04:30:35.641Z,101169.23
2022-08-07T04:33:07.445Z,101169.75
2022-08-07T04:35:37.537Z,101171.49
2022-08-07T04:38:09.231Z,101173.35
2022-08-07T04:40:52.732Z,101175.29
2022-08-07T04:44:11.964Z,101172.24
2022-08-07T04:46:59.581Z,101181.81
2022-08-07T04:50:04.146Z,101185.86
2022-08-07T04:52:53.578Z,101190.34
2022-08-07T04:58:12.052Z,101190.23
2022-08-07T04:58:38.757Z,101191.36
2022-08-07T05:02:08.690Z,101189.63
2022-08-07T05:05:11.894Z,101194.83
2022-08-07T05:08:08.423Z,101195.83
2022-08-07T05:10:51.174Z,101200.82
2022-08-07T05:14:55.213Z,101200.51
2022-08-07T05:16:25.772Z,101201.59
2022-08-07T05:18:56.583Z,101207.23
2022-08-07T05:22:00.247Z,101210.79
2022-08-07T05:24:17.508Z,101211.17
2022-08-07T05:26:47.237Z,101209.27
2022-08-07T05:29:17.230Z,101214.33
2022-08-07T05:31:51.207Z,101213.19
2022-08-07T05:34:26.302Z,101215.17
2022-08-07T05:36:55.554Z,101214.60
2022-08-07T05:40:05.457Z,101217.58
2022-08-07T05:42:34.269Z,101219.48
2022-08-07T05:45:26.327Z,101222.45
2022-08-07T05:48:16.579Z,101222.77
2022-08-07T05:50:46.041Z,101219.98
2022-08-07T05:54:14.151Z,101221.00
2022-08-07T05:56:06.234Z,101225.12
2022-08-07T05:58:52.316Z,101227.30
2022-08-07T06:01:27.458Z,101230.16
2022-08-07T06:04:10.468Z,101231.10
2022-08-07T06:06:46.416Z,101230.33
2022-08-07T06:09:16.767Z,101233.41
2022-08-07T06:11:46.534Z,101235.44
2022-08-07T06:14:20.999Z,101237.09
2022-08-07T06:16:55.818Z,101237.73
2022-08-07T06:19:52.005Z,101240.16
2022-08-07T06:22:50.555Z,101243.22
2022-08-07T06:25:34.843Z,101243.75
2022-08-07T06:28:14.212Z,101245.33
2022-08-07T06:30:45.868Z,101241.75
2022-08-07T06:33:17.889Z,101243.92
2022-08-07T06:36:06.101Z,101242.60
2022-08-07T06:38:35.162Z,101243.64
2022-08-07T06:41:13.022Z,101247.63
2022-08-07T06:43:46.447Z,101243.20
2022-08-07T06:46:35.124Z,101246.80
2022-08-07T06:49:05.162Z,101247.77
2022-08-07T06:51:49.605Z,101248.27
2022-08-07T06:55:32.586Z,101245.29
2022-08-07T06:57:09.239Z,101242.64
2022-08-07T07:00:13.789Z,101243.59
2022-08-07T07:02:53.496Z,101244.23
2022-08-07T07:06:03.615Z,101246.23
2022-08-07T07:08:12.453Z,101243.80
2022-08-07T07:10:54.951Z,101240.17
2022-08-07T07:13:55.872Z,101240.94
2022-08-07T07:16:30.277Z,101242.71
2022-08-07T07:19:23.606Z,101246.21
2022-08-07T07:22:04.825Z,101247.79
2022-08-07T07:24:43.004Z,101240.89
2022-08-07T07:27:35.571Z,101241.64
2022-08-07T07:30:32.483Z,101244.40
2022-08-07T07:33:01.373Z,101248.94
2022-08-07T07:35:33.477Z,101251.85
2022-08-07T07:38:05.758Z,101254.80
2022-08-07T07:40:34.138Z,101255.31
2022-08-07T07:43:15.306Z,101257.42
2022-08-07T07:46:36.868Z,101258.61
2022-08-07T07:48:36.481Z,101256.63
2022-08-07T07:51:07.708Z,101257.29
2022-08-07T07:53:52.109Z,101255.27
2022-08-07T07:56:30.531Z,101257.52
2022-08-07T07:59:04.377Z,101250.61
2022-08-07T08:02:02.944Z,101243.18
2022-08-07T08:04:25.718Z,101237.73
2022-08-07T08:06:54.929Z,101240.05
2022-08-07T08:09:25.948Z,101241.27
2022-08-07T08:12:02.622Z,101241.92
2022-08-07T08:14:34.247Z,101238.25
2022-08-07T08:17:56.094Z,101237.54
2022-08-07T08:20:17.446Z,101236.45
2022-08-07T08:23:09.280Z,101237.42
2022-08-07T08:25:58.481Z,101230.42
2022-08-07T08:28:37.398Z,101239.73
2022-08-07T08:32:16.729Z,101245.57
2022-08-07T08:34:32.870Z,101244.52
2022-08-07T08:37:02.967Z,101243.05
2022-08-07T08:39:39.832Z,101244.44
2022-08-07T08:42:52.863Z,101240.28
2022-08-07T08:45:59.219Z,101235.48
2022-08-07T08:48:42.472Z,101230.33
2022-08-07T08:52:00.892Z,101232.83
2022-08-07T08:54:50.812Z,101237.46
2022-08-07T08:57:38.052Z,101238.68
2022-08-07T09:00:12.264Z,101242.33
2022-08-07T09:02:40.310Z,101246.29
2022-08-07T09:05:37.810Z,101246.42
2022-08-07T09:08:28.454Z,101248.06
2022-08-07T09:11:24.296Z,101248.38
2022-08-07T09:14:20.329Z,101245.67
2022-08-07T09:16:57.631Z,101244.79
2022-08-07T09:20:35.968Z,101247.66
2022-08-07T09:24:54.123Z,101250.45
2022-08-07T09:26:27.776Z,101245.34
2022-08-07T09:30:06.615Z,101235.70
2022-08-07T09:33:05.710Z,101234.72
2022-08-07T09:36:35.067Z,101230.40
2022-08-07T09:39:54.218Z,101232.15
2022-08-07T09:42:11.902Z,101236.77
2022-08-07T09:47:24.017Z,101237.64
2022-08-07T09:48:29.709Z,101228.77
2022-08-07T09:51:25.926Z,101230.44
2022-08-07T09:54:02.631Z,101237.15
2022-08-07T09:56:51.724Z,101232.00
2022-08-07T09:59:44.355Z,101228.48
2022-08-07T10:02:55.387Z,101231.90
2022-08-07T10:06:12.264Z,101230.61
2022-08-07T10:09:15.171Z,101232.54
2022-08-07T10:12:53.115Z,101231.44
2022-08-07T10:16:09.755Z,101230.21
2022-08-07T10:19:24.674Z,101236.02
2022-08-07T10:22:24.868Z,101237.81
2022-08-07T10:25:22.661Z,101239.58
2022-08-07T10:28:17.386Z,101241.89
2022-08-07T10:31:31.464Z,101242.58
2022-08-07T10:34:37.712Z,101245.63
2022-08-07T10:38:21.211Z,101246.98
2022-08-07T10:41:04.182Z,101259.55
2022-08-07T10:43:43.031Z,101249.42
2022-08-07T10:46:20.011Z,101253.87
2022-08-07T10:49:49.095Z,101248.00
2022-08-07T10:52:55.303Z,101241.92
2022-08-07T10:55:37.971Z,101235.39
2022-08-07T10:58:48.181Z,101237.65
2022-08-07T11:02:12.447Z,101236.31
2022-08-07T11:05:50.780Z,101234.64
2022-08-07T11:08:32.431Z,101237.27
2022-08-07T11:11:25.464Z,101245.15
2022-08-07T11:14:44.915Z,101240.29
2022-08-07T11:17:42.597Z,101236.41
2022-08-07T11:20:19.910Z,101230.44
2022-08-07T11:23:36.598Z,101226.64
2022-08-07T11:26:48.096Z,101230.42
2022-08-07T11:30:10.051Z,101234.08
2022-08-07T11:33:01.269Z,101237.52
2022-08-07T11:36:10.444Z,101250.30
2022-08-07T11:38:59.814Z,101249.64
2022-08-07T11:42:00.433Z,101252.13
2022-08-07T11:45:35.561Z,101257.04
2022-08-07T11:48:29.129Z,101259.34
2022-08-07T11:51:41.340Z,101260.77
2022-08-07T11:54:46.485Z,101276.65
2022-08-07T11:57:57.877Z,101261.73
2022-08-07T12:01:02.238Z,101264.77
2022-08-07T12:03:49.641Z,101270.45
2022-08-07T12:06:39.027Z,101276.43
2022-08-07T12:09:09.639Z,101283.51
2022-08-07T12:12:09.179Z,101280.06
2022-08-07T12:15:01.200Z,101282.31
2022-08-07T12:17:39.228Z,101293.50
2022-08-07T12:20:36.525Z,101305.57
2022-08-07T12:23:21.396Z,101300.16
2022-08-07T12:26:41.986Z,101296.02
2022-08-07T12:30:04.626Z,101300.40
2022-08-07T12:32:58.586Z,101294.84
2022-08-07T12:35:26.979Z,101285.50
2022-08-07T12:38:11.339Z,101285.45
2022-08-07T12:40:50.397Z,101286.02
2022-08-07T12:44:01.381Z,101288.43
2022-08-07T12:46:41.284Z,101295.77
2022-08-07T12:49:51.567Z,101299.89
2022-08-07T12:52:41.728Z,101302.31
2022-08-07T12:56:02.762Z,101306.54
2022-08-07T12:58:37.053Z,101308.87
2022-08-07T13:01:32.057Z,101305.72
2022-08-07T13:04:31.707Z,101308.55
2022-08-07T13:08:13.945Z,101294.17
2022-08-07T13:11:01.825Z,101296.89
2022-08-07T13:13:55.152Z,101293.81
2022-08-07T13:16:41.271Z,101296.88
2022-08-07T13:19:50.886Z,101287.59
2022-08-07T13:22:53.367Z,101290.67
2022-08-07T13:25:30.641Z,101281.13
2022-08-07T13:28:14.294Z,101280.15
2022-08-07T13:31:13.333Z,101283.09
2022-08-07T13:34:33.414Z,101284.27
2022-08-07T13:36:44.880Z,101282.40
2022-08-07T13:40:36.276Z,101285.28
2022-08-07T13:42:53.190Z,101281.41
2022-08-07T13:46:11.142Z,101276.05
2022-08-07T13:48:27.454Z,101278.25
2022-08-07T13:51:00.221Z,101268.08
2022-08-07T13:53:59.576Z,101271.38
2022-08-07T13:56:36.274Z,101278.55
2022-08-07T13:59:21.943Z,101271.86
2022-08-07T14:02:08.072Z,101267.30
2022-08-07T14:04:54.437Z,101277.02
2022-08-07T14:08:01.360Z,101273.42
2022-08-07T14:10:44.827Z,101266.08
2022-08-07T14:13:33.189Z,101256.90
2022-08-07T14:16:06.379Z,101258.77
2022-08-07T14:18:56.748Z,101256.51
2022-08-07T14:22:03.093Z,101252.38
2022-08-07T14:24:35.459Z,101259.69
2022-08-07T14:27:16.169Z,101264.89
2022-08-07T14:30:08.091Z,101267.30
2022-08-07T14:32:50.501Z,101265.71
2022-08-07T14:35:45.349Z,101261.02
2022-08-07T14:38:26.839Z,101256.06
2022-08-07T14:43:55.512Z,101263.68
2022-08-07T14:46:32.004Z,101264.02
2022-08-07T14:49:56.086Z,101259.98
2022-08-07T14:52:05.032Z,101263.16
2022-08-07T14:54:42.154Z,101257.54
2022-08-07T14:57:19.665Z,101257.27
2022-08-07T15:00:03.172Z,101262.30
2022-08-07T15:02:39.405Z,101267.44
2022-08-07T15:05:20.084Z,101265.27
2022-08-07T15:08:05.063Z,101267.14
2022-08-07T15:10:36.645Z,101265.74
2022-08-07T15:13:18.313Z,101261.09
2022-08-07T15:15:52.198Z,101262.19
2022-08-07T15:18:46.362Z,101260.72
2022-08-07T15:25:13.285Z,101267.48
2022-08-07T15:27:16.831Z,101263.79
2022-08-07T15:30:08.844Z,101266.89
2022-08-07T15:32:50.672Z,101270.92
2022-08-07T15:36:00.841Z,101281.30
2022-08-07T15:41:24.422Z,101283.96
2022-08-07T15:44:14.714Z,101287.11
2022-08-07T15:50:04.282Z,101296.01
2022-08-07T15:52:30.782Z,101300.16
2022-08-07T15:55:03.865Z,101303.53
2022-08-07T15:57:39.946Z,101301.96
2022-08-07T16:00:31.078Z,101304.63
2022-08-07T16:03:46.111Z,101311.16
2022-08-07T16:06:16.650Z,101311.31
2022-08-07T16:08:46.433Z,101311.63
2022-08-07T16:11:42.933Z,101312.40
2022-08-07T16:14:53.686Z,101316.10
2022-08-07T16:18:01.926Z,101314.51
2022-08-07T16:22:01.593Z,101313.35
2022-08-07T16:24:34.420Z,101312.58
2022-08-07T16:27:18.642Z,101315.36
2022-08-07T16:30:11.085Z,101314.42
2022-08-07T16:34:02.073Z,101322.27
2022-08-07T16:36:19.898Z,101326.04
2022-08-07T16:39:49.379Z,101337.04
2022-08-07T16:42:47.873Z,101349.11
2022-08-07T16:46:21.331Z,101356.34
2022-08-07T16:50:27.053Z,101355.45
2022-08-07T16:52:50.771Z,101355.94
2022-08-07T16:55:50.324Z,101365.45
2022-08-07T16:59:10.804Z,101373.25
2022-08-07T17:02:08.999Z,101380.54
2022-08-07T17:06:19.514Z,101378.46
2022-08-07T17:09:09.807Z,101390.04
2022-08-07T17:12:05.170Z,101398.77
2022-08-07T17:14:48.724Z,101402.19
2022-08-07T17:17:46.411Z,101414.16
2022-08-07T17:20:21.438Z,101430.01
2022-08-07T17:23:40.179Z,101435.61
2022-08-07T17:26:23.419Z,101447.21
2022-08-07T17:29:09.102Z,101450.80
2022-08-07T17:32:03.211Z,101460.48
2022-08-07T17:35:40.706Z,101462.38
2022-08-07T17:38:09.428Z,101467.14
2022-08-07T17:40:43.997Z,101462.39
2022-08-07T17:44:00.956Z,101472.38
2022-08-07T17:46:43.150Z,101477.39
2022-08-07T17:49:44.514Z,101477.48
2022-08-07T17:52:35.298Z,101481.63
2022-08-07T17:55:16.634Z,101492.25
2022-08-07T17:58:08.426Z,101497.09
2022-08-07T18:00:48.782Z,101499.20
2022-08-07T18:04:04.460Z,101504.91
2022-08-07T18:06:36.918Z,101502.95
2022-08-07T18:09:08.540Z,101510.44
2022-08-07T18:12:16.539Z,101511.63
2022-08-07T18:15:00.341Z,101518.61
2022-08-07T18:18:46.178Z,101521.70
2022-08-07T18:21:02.972Z,101525.23
2022-08-07T18:23:58.500Z,101527.36
2022-08-07T18:26:56.513Z,101525.59
2022-08-07T18:30:04.302Z,101530.42
2022-08-07T18:33:30.432Z,101529.30
2022-08-07T18:36:53.681Z,101531.06
2022-08-07T18:40:06.407Z,101541.20
2022-08-07T18:42:54.407Z,101548.92
2022-08-07T18:46:25.016Z,101550.98
2022-08-07T18:50:31.321Z,101555.60
2022-08-07T18:52:34.592Z,101557.52
2022-08-07T18:54:49.718Z,101555.44
2022-08-07T18:57:43.801Z,101556.48
2022-08-07T19:01:02.029Z,101555.79
2022-08-07T19:03:52.363Z,101551.05
2022-08-07T19:06:48.897Z,101553.77
2022-08-07T19:09:59.027Z,101555.19
2022-08-07T19:12:53.642Z,101557.70
2022-08-07T19:16:05.131Z,101557.98
2022-08-07T19:19:13.174Z,101561.02
2022-08-07T19:22:31.150Z,101563.16
2022-08-07T19:25:06.923Z,101566.73
2022-08-07T19:28:30.249Z,101570.09
2022-08-07T19:31:03.461Z,101573.65
2022-08-07T19:33:34.859Z,101568.86
2022-08-07T19:36:04.511Z,101569.34
2022-08-07T19:38:35.201Z,101571.77
2022-08-07T19:41:44.305Z,101571.93
2022-08-07T19:44:21.578Z,101571.95
2022-08-07T19:46:55.868Z,101572.57
2022-08-07T19:49:57.073Z,101571.84
2022-08-07T19:52:18.762Z,101573.27
2022-08-07T19:54:56.323Z,101573.16
2022-08-07T19:58:02.556Z,101571.71
2022-08-07T20:00:34.494Z,101570.51
2022-08-07T20:03:34.603Z,101573.69
2022-08-07T20:06:02.683Z,101577.83
2022-08-07T20:08:34.103Z,101579.84
2022-08-07T20:11:10.054Z,101577.73
2022-08-07T20:13:50.647Z,101574.58
2022-08-07T20:16:35.568Z,101575.96
2022-08-07T20:19:10.378Z,101576.27
2022-08-07T20:21:47.411Z,101573.35
2022-08-07T20:24:24.045Z,101577.19
2022-08-07T20:27:04.344Z,101575.48
2022-08-07T20:29:49.433Z,101585.58
2022-08-07T20:32:39.994Z,101578.65
2022-08-07T20:35:26.264Z,101577.68
2022-08-07T20:37:59.708Z,101578.46
2022-08-07T20:40:40.587Z,101580.13
2022-08-07T20:43:19.217Z,101582.02
2022-08-07T20:46:26.008Z,101582.67
2022-08-07T20:48:57.951Z,101580.71
2022-08-07T20:51:30.496Z,101581.14
2022-08-07T20:54:11.754Z,101582.04
2022-08-07T20:56:41.886Z,101584.13
2022-08-07T21:00:04.219Z,101585.28
2022-08-07T21:02:32.826Z,101582.16
2022-08-07T21:05:04.464Z,101584.14
2022-08-07T21:07:39.067Z,101584.19
2022-08-07T21:10:11.615Z,101582.95
2022-08-07T21:12:39.134Z,101588.76
2022-08-07T21:15:10.211Z,101594.15
2022-08-07T21:18:04.020Z,101590.52
2022-08-07T21:20:39.236Z,101592.46
2022-08-07T21:23:29.252Z,101591.52
2022-08-07T21:26:08.788Z,101597.26
2022-08-07T21:28:58.265Z,101599.98
2022-08-07T21:31:49.933Z,101591.96
2022-08-07T21:34:46.328Z,101588.27
2022-08-07T21:37:58.465Z,101591.38
2022-08-07T21:40:47.478Z,101595.27
2022-08-07T21:44:03.644Z,101593.35
2022-08-07T21:46:37.228Z,101594.71
2022-08-07T21:49:26.827Z,101595.42
2022-08-07T21:52:17.680Z,101592.75
2022-08-07T21:55:29.916Z,101588.70
2022-08-07T21:58:29.934Z,101593.49
2022-08-07T22:01:13.988Z,101592.73
2022-08-07T22:03:47.626Z,101594.71
2022-08-07T22:06:30.424Z,101596.30
2022-08-07T22:09:12.019Z,101594.80
2022-08-07T22:12:05.050Z,101596.74
2022-08-07T22:15:00.079Z,101604.71
2022-08-07T22:17:59.151Z,101609.13
2022-08-07T22:20:44.543Z,101607.05
2022-08-07T22:23:46.467Z,101606.57
2022-08-07T22:26:30.769Z,101604.83
2022-08-07T22:29:50.177Z,101603.15
2022-08-07T22:32:43.955Z,101611.97
2022-08-07T22:35:11.707Z,101615.70
2022-08-07T22:38:25.862Z,101614.19
2022-08-07T22:42:18.786Z,101614.28
2022-08-07T22:44:21.428Z,101616.81
2022-08-07T22:47:04.188Z,101614.33
2022-08-07T22:50:03.876Z,101616.73
2022-08-07T22:53:17.344Z,101613.08
2022-08-07T22:56:00.689Z,101609.77
2022-08-07T22:59:16.766Z,101606.23
2022-08-07T23:02:17.677Z,101610.33
2022-08-07T23:06:07.730Z,101615.38
2022-08-07T23:08:30.324Z,101617.85
2022-08-07T23:11:22.282Z,101618.75
2022-08-07T23:14:15.958Z,101618.73
2022-08-07T23:17:08.616Z,101615.04
2022-08-07T23:20:40.803Z,101616.81
2022-08-07T23:24:06.858Z,101616.89
2022-08-07T23:27:12.968Z,101615.29
2022-08-07T23:30:37.207Z,101616.88
2022-08-07T23:34:34.331Z,101617.30
2022-08-07T23:37:23.465Z,101617.88
2022-08-07T23:40:39.670Z,101612.20
2022-08-07T23:43:37.861Z,101616.53
2022-08-07T23:46:43.855Z,101618.19
2022-08-07T23:49:58.135Z,101615.79
2022-08-07T23:53:01.266Z,101616.04
2022-08-07T23:56:11.974Z,101615.73
